KROX/ROX METAR and TAF weather

Enter ICAO airport designator
Station Type Date Time Source
KROX METAR 2022/05/26 04:15 UTC NOAA

KROX 260415Z AUTO 11005KT 10SM 12/07 A2998 RMK AO2


Station Type Date Time Source
KROX Decoded METAR 2022/05/26 04:15 UTC NOAA

Roseau, Roseau Municipal Airport/Rudy Billberg Field, MN, United States (KROX) 48-51N 095-42W
May 26, 2022 - 12:15 AM EDT / 2022.05.26 0415 UTC
Wind: from the ESE (110 degrees) at 6 MPH (5 KT):0
Visibility: 10 mile(s):0
Temperature: 53 F (12 C)
Dew Point: 44 F (7 C)
Relative Humidity: 71%
Pressure (altimeter): 29.98 in. Hg (1015 hPa)
ob: KROX 260415Z AUTO 11005KT 10SM 12/07 A2998 RMK AO2
cycle: 4

Station Type Date Time Source
KROX TAF UTC NOAA

Error!

Example: see airport list